sensor_id;sensor_type;location;lat;lon;timestamp;temperature;humidity
61641;HTU21D;62201;49.966;8.342;2024-03-23T00:55:44;9.22;117.92
61641;HTU21D;62201;49.966;8.342;2024-03-23T00:58:09;9.23;118.18
61641;HTU21D;62201;49.966;8.342;2024-03-23T01:00:35;9.20;118.98
61641;HTU21D;62201;49.966;8.342;2024-03-23T01:03:00;9.15;118.99
61641;HTU21D;62201;49.966;8.342;2024-03-23T01:05:26;9.19;118.99
61641;HTU21D;62201;49.966;8.342;2024-03-23T01:07:51;9.19;118.99
61641;HTU21D;62201;49.966;8.342;2024-03-23T01:10:16;9.21;118.99
61641;HTU21D;62201;49.966;8.342;2024-03-23T01:12:42;9.17;118.99
61641;HTU21D;62201;49.966;8.342;2024-03-23T01:15:07;9.16;118.99
61641;HTU21D;62201;49.966;8.342;2024-03-23T01:17:33;9.12;118.99
61641;HTU21D;62201;49.966;8.342;2024-03-23T01:19:58;9.18;118.99
61641;HTU21D;62201;49.966;8.342;2024-03-23T01:22:24;9.23;118.99
61641;HTU21D;62201;49.966;8.342;2024-03-23T01:24:49;9.30;118.99
61641;HTU21D;62201;49.966;8.342;2024-03-23T01:27:14;9.36;118.99
61641;HTU21D;62201;49.966;8.342;2024-03-23T01:29:40;9.40;118.99
61641;HTU21D;62201;49.966;8.342;2024-03-23T01:32:05;9.44;118.99
61641;HTU21D;62201;49.966;8.342;2024-03-23T01:34:32;9.41;118.99
61641;HTU21D;62201;49.966;8.342;2024-03-23T01:36:57;9.37;118.99
61641;HTU21D;62201;49.966;8.342;2024-03-23T01:39:22;9.35;118.99
61641;HTU21D;62201;49.966;8.342;2024-03-23T01:41:48;9.35;118.99
61641;HTU21D;62201;49.966;8.342;2024-03-23T01:44:13;9.38;118.99
61641;HTU21D;62201;49.966;8.342;2024-03-23T01:46:39;9.32;118.99
61641;HTU21D;62201;49.966;8.342;2024-03-23T01:49:07;9.26;118.99
61641;HTU21D;62201;49.966;8.342;2024-03-23T01:51:33;9.27;118.99
61641;HTU21D;62201;49.966;8.342;2024-03-23T01:54:00;9.27;118.99
61641;HTU21D;62201;49.966;8.342;2024-03-23T01:56:28;9.31;118.99
61641;HTU21D;62201;49.966;8.342;2024-03-23T01:58:54;9.34;118.99
61641;HTU21D;62201;49.966;8.342;2024-03-23T02:01:19;9.32;118.99
61641;HTU21D;62201;49.966;8.342;2024-03-23T02:03:44;9.33;118.99
61641;HTU21D;62201;49.966;8.342;2024-03-23T02:06:10;9.22;118.99
61641;HTU21D;62201;49.966;8.342;2024-03-23T02:08:35;9.04;118.99
61641;HTU21D;62201;49.966;8.342;2024-03-23T02:11:01;9.17;118.99
61641;HTU21D;62201;49.966;8.342;2024-03-23T02:13:26;9.17;118.99
61641;HTU21D;62201;49.966;8.342;2024-03-23T02:15:52;9.21;118.99
61641;HTU21D;62201;49.966;8.342;2024-03-23T02:18:17;9.15;118.99
61641;HTU21D;62201;49.966;8.342;2024-03-23T02:20:43;9.11;118.99
61641;HTU21D;62201;49.966;8.342;2024-03-23T02:23:15;9.12;118.99
61641;HTU21D;62201;49.966;8.342;2024-03-23T02:25:41;9.08;118.99
61641;HTU21D;62201;49.966;8.342;2024-03-23T02:28:06;8.98;118.99
61641;HTU21D;62201;49.966;8.342;2024-03-23T02:30:32;8.97;118.99
61641;HTU21D;62201;49.966;8.342;2024-03-23T02:32:57;8.90;118.99
61641;HTU21D;62201;49.966;8.342;2024-03-23T02:35:23;8.85;118.99
61641;HTU21D;62201;49.966;8.342;2024-03-23T02:37:48;8.85;118.99
61641;HTU21D;62201;49.966;8.342;2024-03-23T02:40:15;8.85;118.99
61641;HTU21D;62201;49.966;8.342;2024-03-23T02:42:40;8.90;118.99
61641;HTU21D;62201;49.966;8.342;2024-03-23T02:45:06;9.01;118.99
61641;HTU21D;62201;49.966;8.342;2024-03-23T02:47:32;9.00;118.99
61641;HTU21D;62201;49.966;8.342;2024-03-23T02:49:58;9.00;118.99
61641;HTU21D;62201;49.966;8.342;2024-03-23T02:52:23;8.94;118.99
61641;HTU21D;62201;49.966;8.342;2024-03-23T02:54:48;8.96;118.99
61641;HTU21D;62201;49.966;8.342;2024-03-23T02:57:14;8.97;118.99
61641;HTU21D;62201;49.966;8.342;2024-03-23T02:59:39;9.01;118.99
61641;HTU21D;62201;49.966;8.342;2024-03-23T03:02:05;9.07;118.99
61641;HTU21D;62201;49.966;8.342;2024-03-23T03:04:30;9.05;118.99
61641;HTU21D;62201;49.966;8.342;2024-03-23T03:06:56;9.25;118.99
61641;HTU21D;62201;49.966;8.342;2024-03-23T03:09:21;9.26;118.99
61641;HTU21D;62201;49.966;8.342;2024-03-23T03:11:47;9.31;118.99
61641;HTU21D;62201;49.966;8.342;2024-03-23T03:14:12;9.44;118.99
61641;HTU21D;62201;49.966;8.342;2024-03-23T03:16:38;9.39;118.99
61641;HTU21D;62201;49.966;8.342;2024-03-23T03:19:03;9.33;118.99
61641;HTU21D;62201;49.966;8.342;2024-03-23T03:21:29;9.25;118.99
61641;HTU21D;62201;49.966;8.342;2024-03-23T03:23:54;9.26;118.99
61641;HTU21D;62201;49.966;8.342;2024-03-23T03:26:21;9.27;118.99
61641;HTU21D;62201;49.966;8.342;2024-03-23T03:28:47;9.25;118.99
61641;HTU21D;62201;49.966;8.342;2024-03-23T03:31:15;9.30;118.99
61641;HTU21D;62201;49.966;8.342;2024-03-23T03:33:40;9.41;118.99
61641;HTU21D;62201;49.966;8.342;2024-03-23T03:36:06;9.48;118.99
61641;HTU21D;62201;49.966;8.342;2024-03-23T03:38:31;9.61;118.99
61641;HTU21D;62201;49.966;8.342;2024-03-23T03:40:56;9.70;118.63
61641;HTU21D;62201;49.966;8.342;2024-03-23T03:43:24;9.75;118.99
61641;HTU21D;62201;49.966;8.342;2024-03-23T03:45:57;9.70;118.99
61641;HTU21D;62201;49.966;8.342;2024-03-23T03:48:22;9.77;117.55
61641;HTU21D;62201;49.966;8.342;2024-03-23T03:50:49;9.75;118.64
61641;HTU21D;62201;49.966;8.342;2024-03-23T03:53:14;9.78;118.18
61641;HTU21D;62201;49.966;8.342;2024-03-23T03:55:40;9.81;117.42
61641;HTU21D;62201;49.966;8.342;2024-03-23T03:58:05;9.89;116.02
61641;HTU21D;62201;49.966;8.342;2024-03-23T04:00:31;9.92;115.81
61641;HTU21D;62201;49.966;8.342;2024-03-23T04:02:56;10.01;115.57
61641;HTU21D;62201;49.966;8.342;2024-03-23T04:05:22;9.89;117.28
61641;HTU21D;62201;49.966;8.342;2024-03-23T04:07:48;9.62;118.99
61641;HTU21D;62201;49.966;8.342;2024-03-23T04:10:14;9.17;118.99
61641;HTU21D;62201;49.966;8.342;2024-03-23T04:12:43;8.93;118.99
61641;HTU21D;62201;49.966;8.342;2024-03-23T04:15:09;8.82;118.99
61641;HTU21D;62201;49.966;8.342;2024-03-23T04:17:34;8.29;118.99
61641;HTU21D;62201;49.966;8.342;2024-03-23T04:20:01;8.28;118.99
61641;HTU21D;62201;49.966;8.342;2024-03-23T04:22:26;8.20;118.99
61641;HTU21D;62201;49.966;8.342;2024-03-23T04:24:56;8.06;118.99
61641;HTU21D;62201;49.966;8.342;2024-03-23T04:27:25;8.04;118.99
61641;HTU21D;62201;49.966;8.342;2024-03-23T04:29:51;8.03;118.99
61641;HTU21D;62201;49.966;8.342;2024-03-23T04:32:17;8.01;118.99
61641;HTU21D;62201;49.966;8.342;2024-03-23T04:34:43;7.98;118.99
61641;HTU21D;62201;49.966;8.342;2024-03-23T04:37:09;7.92;118.99
61641;HTU21D;62201;49.966;8.342;2024-03-23T04:39:36;7.94;118.99
61641;HTU21D;62201;49.966;8.342;2024-03-23T04:42:02;8.05;118.61
61641;HTU21D;62201;49.966;8.342;2024-03-23T04:44:28;8.05;117.83
61641;HTU21D;62201;49.966;8.342;2024-03-23T04:46:53;8.06;118.91
61641;HTU21D;62201;49.966;8.342;2024-03-23T04:49:18;8.03;118.99
61641;HTU21D;62201;49.966;8.342;2024-03-23T04:51:44;8.04;118.99
61641;HTU21D;62201;49.966;8.342;2024-03-23T04:54:12;8.11;118.58
61641;HTU21D;62201;49.966;8.342;2024-03-23T04:56:37;8.08;116.46
61641;HTU21D;62201;49.966;8.342;2024-03-23T04:59:03;8.05;116.84
61641;HTU21D;62201;49.966;8.342;2024-03-23T05:01:30;8.03;116.55
61641;HTU21D;62201;49.966;8.342;2024-03-23T05:03:56;8.08;116.15
61641;HTU21D;62201;49.966;8.342;2024-03-23T05:06:22;8.12;114.80
61641;HTU21D;62201;49.966;8.342;2024-03-23T05:08:47;8.11;117.18
61641;HTU21D;62201;49.966;8.342;2024-03-23T05:11:13;8.09;115.74
61641;HTU21D;62201;49.966;8.342;2024-03-23T05:13:38;7.94;118.13
61641;HTU21D;62201;49.966;8.342;2024-03-23T05:16:04;8.01;116.60
61641;HTU21D;62201;49.966;8.342;2024-03-23T05:18:29;8.02;116.98
61641;HTU21D;62201;49.966;8.342;2024-03-23T05:20:59;7.98;115.89
61641;HTU21D;62201;49.966;8.342;2024-03-23T05:23:25;7.92;116.34
61641;HTU21D;62201;49.966;8.342;2024-03-23T05:25:50;7.89;115.69
61641;HTU21D;62201;49.966;8.342;2024-03-23T05:28:17;8.06;112.05
61641;HTU21D;62201;49.966;8.342;2024-03-23T05:30:42;7.98;112.43
61641;HTU21D;62201;49.966;8.342;2024-03-23T05:33:08;7.88;111.90
61641;HTU21D;62201;49.966;8.342;2024-03-23T05:35:33;7.82;110.47
61641;HTU21D;62201;49.966;8.342;2024-03-23T05:37:59;7.94;109.49
61641;HTU21D;62201;49.966;8.342;2024-03-23T05:40:26;7.90;108.81
61641;HTU21D;62201;49.966;8.342;2024-03-23T05:42:51;7.87;108.62
61641;HTU21D;62201;49.966;8.342;2024-03-23T05:45:21;7.87;108.50
61641;HTU21D;62201;49.966;8.342;2024-03-23T05:47:47;7.83;107.05
61641;HTU21D;62201;49.966;8.342;2024-03-23T05:50:13;7.79;108.51
61641;HTU21D;62201;49.966;8.342;2024-03-23T05:52:39;7.72;108.24
61641;HTU21D;62201;49.966;8.342;2024-03-23T05:55:05;7.69;108.36
61641;HTU21D;62201;49.966;8.342;2024-03-23T05:57:31;7.64;107.48
61641;HTU21D;62201;49.966;8.342;2024-03-23T05:59:56;7.61;108.12
61641;HTU21D;62201;49.966;8.342;2024-03-23T06:02:22;7.59;107.62
61641;HTU21D;62201;49.966;8.342;2024-03-23T06:04:48;7.56;106.61
61641;HTU21D;62201;49.966;8.342;2024-03-23T06:07:13;7.58;107.33
61641;HTU21D;62201;49.966;8.342;2024-03-23T06:09:42;7.56;107.51
61641;HTU21D;62201;49.966;8.342;2024-03-23T06:12:07;7.54;105.48
61641;HTU21D;62201;49.966;8.342;2024-03-23T06:14:33;7.47;105.54
61641;HTU21D;62201;49.966;8.342;2024-03-23T06:16:59;7.47;104.35
61641;HTU21D;62201;49.966;8.342;2024-03-23T06:19:25;7.47;104.49
61641;HTU21D;62201;49.966;8.342;2024-03-23T06:21:54;7.50;104.74
61641;HTU21D;62201;49.966;8.342;2024-03-23T06:24:23;7.52;101.35
61641;HTU21D;62201;49.966;8.342;2024-03-23T06:26:49;7.52;102.49
61641;HTU21D;62201;49.966;8.342;2024-03-23T06:29:15;7.52;103.87
61641;HTU21D;62201;49.966;8.342;2024-03-23T06:31:40;7.40;102.83
61641;HTU21D;62201;49.966;8.342;2024-03-23T06:34:05;7.50;102.48
61641;HTU21D;62201;49.966;8.342;2024-03-23T06:36:31;7.53;104.61
61641;HTU21D;62201;49.966;8.342;2024-03-23T06:38:56;7.45;104.44
61641;HTU21D;62201;49.966;8.342;2024-03-23T06:41:22;7.48;104.53
61641;HTU21D;62201;49.966;8.342;2024-03-23T06:43:48;7.31;102.83
61641;HTU21D;62201;49.966;8.342;2024-03-23T06:46:13;7.31;101.54
61641;HTU21D;62201;49.966;8.342;2024-03-23T06:48:39;7.24;99.60
61641;HTU21D;62201;49.966;8.342;2024-03-23T06:51:04;7.23;101.12
61641;HTU21D;62201;49.966;8.342;2024-03-23T06:53:29;7.29;102.31
61641;HTU21D;62201;49.966;8.342;2024-03-23T06:55:55;7.32;101.87
61641;HTU21D;62201;49.966;8.342;2024-03-23T06:58:23;7.33;103.60
61641;HTU21D;62201;49.966;8.342;2024-03-23T07:00:48;7.17;102.87
61641;HTU21D;62201;49.966;8.342;2024-03-23T07:03:14;7.34;105.24
61641;HTU21D;62201;49.966;8.342;2024-03-23T07:05:40;7.10;103.15
61641;HTU21D;62201;49.966;8.342;2024-03-23T07:08:05;7.18;102.45
61641;HTU21D;62201;49.966;8.342;2024-03-23T07:10:31;7.26;101.97
61641;HTU21D;62201;49.966;8.342;2024-03-23T07:12:56;7.45;99.15
61641;HTU21D;62201;49.966;8.342;2024-03-23T07:15:22;7.82;99.74
61641;HTU21D;62201;49.966;8.342;2024-03-23T07:17:47;7.98;97.25
61641;HTU21D;62201;49.966;8.342;2024-03-23T07:20:13;7.93;96.04
61641;HTU21D;62201;49.966;8.342;2024-03-23T07:22:39;7.88;93.28
61641;HTU21D;62201;49.966;8.342;2024-03-23T07:25:05;7.75;93.75
61641;HTU21D;62201;49.966;8.342;2024-03-23T07:27:30;7.71;93.69
61641;HTU21D;62201;49.966;8.342;2024-03-23T07:29:56;7.59;94.36
61641;HTU21D;62201;49.966;8.342;2024-03-23T07:32:21;7.84;94.39
61641;HTU21D;62201;49.966;8.342;2024-03-23T07:34:46;7.84;93.78
61641;HTU21D;62201;49.966;8.342;2024-03-23T07:37:12;7.93;94.62
61641;HTU21D;62201;49.966;8.342;2024-03-23T07:39:37;7.65;95.61
61641;HTU21D;62201;49.966;8.342;2024-03-23T07:42:04;7.68;96.54
61641;HTU21D;62201;49.966;8.342;2024-03-23T07:44:30;7.78;96.52
61641;HTU21D;62201;49.966;8.342;2024-03-23T07:46:55;7.60;96.46
61641;HTU21D;62201;49.966;8.342;2024-03-23T07:49:21;7.55;96.56
61641;HTU21D;62201;49.966;8.342;2024-03-23T07:51:46;7.56;96.62
61641;HTU21D;62201;49.966;8.342;2024-03-23T07:54:12;7.67;96.20
61641;HTU21D;62201;49.966;8.342;2024-03-23T07:56:37;7.78;95.96
61641;HTU21D;62201;49.966;8.342;2024-03-23T07:59:02;8.11;95.27
61641;HTU21D;62201;49.966;8.342;2024-03-23T08:01:30;7.96;95.87
61641;HTU21D;62201;49.966;8.342;2024-03-23T08:03:56;8.23;93.78
61641;HTU21D;62201;49.966;8.342;2024-03-23T08:06:21;8.41;93.70
61641;HTU21D;62201;49.966;8.342;2024-03-23T08:08:51;8.03;95.84
61641;HTU21D;62201;49.966;8.342;2024-03-23T08:11:28;8.37;94.88
61641;HTU21D;62201;49.966;8.342;2024-03-23T08:13:55;8.81;92.14
61641;HTU21D;62201;49.966;8.342;2024-03-23T08:16:21;9.14;92.30
61641;HTU21D;62201;49.966;8.342;2024-03-23T08:18:46;9.20;90.23
61641;HTU21D;62201;49.966;8.342;2024-03-23T08:21:12;8.51;90.71
61641;HTU21D;62201;49.966;8.342;2024-03-23T08:23:38;8.58;91.00
61641;HTU21D;62201;49.966;8.342;2024-03-23T08:26:06;8.90;89.28
61641;HTU21D;62201;49.966;8.342;2024-03-23T08:28:31;9.72;86.05
61641;HTU21D;62201;49.966;8.342;2024-03-23T08:31:00;9.14;87.82
61641;HTU21D;62201;49.966;8.342;2024-03-23T08:33:26;9.29;85.87
61641;HTU21D;62201;49.966;8.342;2024-03-23T08:35:56;10.04;83.69
61641;HTU21D;62201;49.966;8.342;2024-03-23T08:38:22;9.69;86.23
61641;HTU21D;62201;49.966;8.342;2024-03-23T08:40:47;9.18;85.96
61641;HTU21D;62201;49.966;8.342;2024-03-23T08:43:13;9.85;83.30
61641;HTU21D;62201;49.966;8.342;2024-03-23T08:45:38;10.49;81.61
61641;HTU21D;62201;49.966;8.342;2024-03-23T08:48:04;9.76;84.69
61641;HTU21D;62201;49.966;8.342;2024-03-23T08:50:29;10.23;83.67
61641;HTU21D;62201;49.966;8.342;2024-03-23T08:52:55;9.59;80.40
61641;HTU21D;62201;49.966;8.342;2024-03-23T08:55:20;9.61;83.65
61641;HTU21D;62201;49.966;8.342;2024-03-23T08:57:45;9.55;83.60
61641;HTU21D;62201;49.966;8.342;2024-03-23T09:00:12;10.16;81.68
61641;HTU21D;62201;49.966;8.342;2024-03-23T09:02:37;9.12;82.40
61641;HTU21D;62201;49.966;8.342;2024-03-23T09:05:03;9.22;82.84
61641;HTU21D;62201;49.966;8.342;2024-03-23T09:07:32;10.08;81.44
61641;HTU21D;62201;49.966;8.342;2024-03-23T09:09:58;9.27;80.90
61641;HTU21D;62201;49.966;8.342;2024-03-23T09:12:23;9.63;80.69
61641;HTU21D;62201;49.966;8.342;2024-03-23T09:14:50;10.03;77.08
61641;HTU21D;62201;49.966;8.342;2024-03-23T09:17:15;10.41;75.34
61641;HTU21D;62201;49.966;8.342;2024-03-23T09:19:40;10.19;75.84
61641;HTU21D;62201;49.966;8.342;2024-03-23T09:22:06;9.98;74.35
61641;HTU21D;62201;49.966;8.342;2024-03-23T09:24:31;10.92;74.16
61641;HTU21D;62201;49.966;8.342;2024-03-23T09:26:57;9.70;73.99
61641;HTU21D;62201;49.966;8.342;2024-03-23T09:29:23;9.84;74.69
61641;HTU21D;62201;49.966;8.342;2024-03-23T09:31:48;11.61;67.83
61641;HTU21D;62201;49.966;8.342;2024-03-23T09:34:14;10.64;70.03
61641;HTU21D;62201;49.966;8.342;2024-03-23T09:36:39;10.23;70.80
61641;HTU21D;62201;49.966;8.342;2024-03-23T09:39:06;11.07;70.10
61641;HTU21D;62201;49.966;8.342;2024-03-23T09:41:32;12.76;64.31
61641;HTU21D;62201;49.966;8.342;2024-03-23T09:43:57;11.07;68.97
61641;HTU21D;62201;49.966;8.342;2024-03-23T09:46:22;10.71;69.22
61641;HTU21D;62201;49.966;8.342;2024-03-23T09:48:48;11.08;67.07
61641;HTU21D;62201;49.966;8.342;2024-03-23T09:51:14;10.54;68.29
61641;HTU21D;62201;49.966;8.342;2024-03-23T09:53:39;10.13;68.52
61641;HTU21D;62201;49.966;8.342;2024-03-23T09:56:04;10.07;67.78
61641;HTU21D;62201;49.966;8.342;2024-03-23T09:58:30;10.00;66.04
61641;HTU21D;62201;49.966;8.342;2024-03-23T10:00:57;9.92;66.55
61641;HTU21D;62201;49.966;8.342;2024-03-23T10:03:23;9.90;67.16
61641;HTU21D;62201;49.966;8.342;2024-03-23T10:06:00;9.93;67.13
61641;HTU21D;62201;49.966;8.342;2024-03-23T10:08:26;10.18;66.41
61641;HTU21D;62201;49.966;8.342;2024-03-23T10:10:53;10.10;67.96
61641;HTU21D;62201;49.966;8.342;2024-03-23T10:13:26;10.13;65.43
61641;HTU21D;62201;49.966;8.342;2024-03-23T10:15:55;10.37;65.29
61641;HTU21D;62201;49.966;8.342;2024-03-23T10:18:22;10.57;64.79
61641;HTU21D;62201;49.966;8.342;2024-03-23T10:21:09;10.73;64.97
61641;HTU21D;62201;49.966;8.342;2024-03-23T10:23:37;10.16;65.10
61641;HTU21D;62201;49.966;8.342;2024-03-23T10:29:00;8.74;71.97
61641;HTU21D;62201;49.966;8.342;2024-03-23T10:31:32;7.94;76.80
61641;HTU21D;62201;49.966;8.342;2024-03-23T10:33:58;7.57;78.93
61641;HTU21D;62201;49.966;8.342;2024-03-23T10:36:24;7.47;80.17
61641;HTU21D;62201;49.966;8.342;2024-03-23T10:38:51;7.15;81.86
61641;HTU21D;62201;49.966;8.342;2024-03-23T10:41:18;7.12;86.22
61641;HTU21D;62201;49.966;8.342;2024-03-23T10:43:46;6.80;101.75
61641;HTU21D;62201;49.966;8.342;2024-03-23T10:46:11;6.56;90.15
61641;HTU21D;62201;49.966;8.342;2024-03-23T10:48:37;6.31;88.90
61641;HTU21D;62201;49.966;8.342;2024-03-23T10:51:03;6.22;92.56
61641;HTU21D;62201;49.966;8.342;2024-03-23T10:53:30;6.41;89.12
61641;HTU21D;62201;49.966;8.342;2024-03-23T10:55:58;6.86;87.48
61641;HTU21D;62201;49.966;8.342;2024-03-23T10:58:27;6.83;88.32
61641;HTU21D;62201;49.966;8.342;2024-03-23T11:00:54;6.93;88.83
61641;HTU21D;62201;49.966;8.342;2024-03-23T11:03:36;6.78;90.54
61641;HTU21D;62201;49.966;8.342;2024-03-23T11:06:03;6.79;92.16
61641;HTU21D;62201;49.966;8.342;2024-03-23T11:08:33;6.83;91.53
61641;HTU21D;62201;49.966;8.342;2024-03-23T11:11:18;6.96;92.82
61641;HTU21D;62201;49.966;8.342;2024-03-23T11:13:51;6.74;93.27
61641;HTU21D;62201;49.966;8.342;2024-03-23T11:16:24;6.73;96.62
61641;HTU21D;62201;49.966;8.342;2024-03-23T11:18:53;6.53;94.35
61641;HTU21D;62201;49.966;8.342;2024-03-23T11:21:53;6.58;118.99
61641;HTU21D;62201;49.966;8.342;2024-03-23T11:24:20;7.04;83.13
61641;HTU21D;62201;49.966;8.342;2024-03-23T11:26:46;7.71;85.79
61641;HTU21D;62201;49.966;8.342;2024-03-23T11:29:13;7.83;86.97
61641;HTU21D;62201;49.966;8.342;2024-03-23T11:31:38;9.74;81.11
61641;HTU21D;62201;49.966;8.342;2024-03-23T11:34:05;10.43;81.83
61641;HTU21D;62201;49.966;8.342;2024-03-23T11:36:31;11.16;74.33
61641;HTU21D;62201;49.966;8.342;2024-03-23T11:38:56;9.81;74.86
61641;HTU21D;62201;49.966;8.342;2024-03-23T11:41:22;9.52;79.40
61641;HTU21D;62201;49.966;8.342;2024-03-23T11:43:47;11.07;72.15
61641;HTU21D;62201;49.966;8.342;2024-03-23T11:46:22;11.04;78.11
61641;HTU21D;62201;49.966;8.342;2024-03-23T11:48:50;11.04;75.02
61641;HTU21D;62201;49.966;8.342;2024-03-23T11:51:17;11.81;67.82
61641;HTU21D;62201;49.966;8.342;2024-03-23T11:53:42;11.32;72.59
61641;HTU21D;62201;49.966;8.342;2024-03-23T11:56:08;10.66;70.93
61641;HTU21D;62201;49.966;8.342;2024-03-23T11:58:34;11.36;67.71
61641;HTU21D;62201;49.966;8.342;2024-03-23T12:01:01;12.48;66.53
61641;HTU21D;62201;49.966;8.342;2024-03-23T12:03:28;12.77;65.94
61641;HTU21D;62201;49.966;8.342;2024-03-23T12:05:56;12.28;64.82
61641;HTU21D;62201;49.966;8.342;2024-03-23T12:08:32;12.72;62.21
61641;HTU21D;62201;49.966;8.342;2024-03-23T12:11:08;11.66;64.79
61641;HTU21D;62201;49.966;8.342;2024-03-23T12:13:37;11.99;65.33
61641;HTU21D;62201;49.966;8.342;2024-03-23T12:18:38;11.70;67.27
61641;HTU21D;62201;49.966;8.342;2024-03-23T12:21:04;12.10;65.06
61641;HTU21D;62201;49.966;8.342;2024-03-23T12:23:29;12.90;60.44
61641;HTU21D;62201;49.966;8.342;2024-03-23T12:25:55;12.10;58.16
61641;HTU21D;62201;49.966;8.342;2024-03-23T12:28:20;11.68;59.75
61641;HTU21D;62201;49.966;8.342;2024-03-23T12:30:46;12.04;60.45
61641;HTU21D;62201;49.966;8.342;2024-03-23T12:33:11;12.52;59.29
61641;HTU21D;62201;49.966;8.342;2024-03-23T12:35:37;11.76;59.98
61641;HTU21D;62201;49.966;8.342;2024-03-23T12:38:04;12.11;59.69
61641;HTU21D;62201;49.966;8.342;2024-03-23T12:40:29;12.25;58.76
61641;HTU21D;62201;49.966;8.342;2024-03-23T12:42:55;12.92;58.28
61641;HTU21D;62201;49.966;8.342;2024-03-23T12:45:21;12.04;58.35
61641;HTU21D;62201;49.966;8.342;2024-03-23T12:47:46;11.85;60.12
61641;HTU21D;62201;49.966;8.342;2024-03-23T12:50:12;11.32;62.66
61641;HTU21D;62201;49.966;8.342;2024-03-23T12:52:37;9.01;75.10
61641;HTU21D;62201;49.966;8.342;2024-03-23T12:55:04;6.67;118.99
61641;HTU21D;62201;49.966;8.342;2024-03-23T12:57:31;5.15;118.99
61641;HTU21D;62201;49.966;8.342;2024-03-23T12:59:57;4.42;118.99
61641;HTU21D;62201;49.966;8.342;2024-03-23T13:02:23;4.45;118.99
61641;HTU21D;62201;49.966;8.342;2024-03-23T13:04:54;4.84;118.99
61641;HTU21D;62201;49.966;8.342;2024-03-23T13:07:21;5.24;118.99
61641;HTU21D;62201;49.966;8.342;2024-03-23T13:09:49;5.59;118.99
61641;HTU21D;62201;49.966;8.342;2024-03-23T13:12:15;5.93;118.99
61641;HTU21D;62201;49.966;8.342;2024-03-23T13:14:40;6.17;118.99
61641;HTU21D;62201;49.966;8.342;2024-03-23T13:17:06;6.66;118.99
61641;HTU21D;62201;49.966;8.342;2024-03-23T13:19:32;6.96;118.99
61641;HTU21D;62201;49.966;8.342;2024-03-23T13:21:58;7.49;118.99
61641;HTU21D;62201;49.966;8.342;2024-03-23T13:24:27;7.73;118.99
61641;HTU21D;62201;49.966;8.342;2024-03-23T13:26:53;7.50;118.99
61641;HTU21D;62201;49.966;8.342;2024-03-23T13:29:19;7.52;118.99
61641;HTU21D;62201;49.966;8.342;2024-03-23T13:31:46;8.76;118.99
61641;HTU21D;62201;49.966;8.342;2024-03-23T13:34:12;7.57;118.99
61641;HTU21D;62201;49.966;8.342;2024-03-23T13:36:40;7.54;118.99
61641;HTU21D;62201;49.966;8.342;2024-03-23T13:39:05;7.22;118.99
61641;HTU21D;62201;49.966;8.342;2024-03-23T13:41:37;7.50;118.99
61641;HTU21D;62201;49.966;8.342;2024-03-23T13:44:02;7.71;118.99
61641;HTU21D;62201;49.966;8.342;2024-03-23T13:46:28;8.83;118.99
61641;HTU21D;62201;49.966;8.342;2024-03-23T13:48:54;7.92;118.99
61641;HTU21D;62201;49.966;8.342;2024-03-23T13:51:23;8.24;118.99
61641;HTU21D;62201;49.966;8.342;2024-03-23T13:53:49;7.48;118.99
61641;HTU21D;62201;49.966;8.342;2024-03-23T13:56:15;8.16;118.99
61641;HTU21D;62201;49.966;8.342;2024-03-23T13:58:40;8.79;118.99
61641;HTU21D;62201;49.966;8.342;2024-03-23T14:01:10;8.17;118.99
61641;HTU21D;62201;49.966;8.342;2024-03-23T14:03:36;8.57;118.99
61641;HTU21D;62201;49.966;8.342;2024-03-23T14:06:01;9.95;110.30
61641;HTU21D;62201;49.966;8.342;2024-03-23T14:08:28;10.45;92.34
61641;HTU21D;62201;49.966;8.342;2024-03-23T14:10:53;9.92;94.35
61641;HTU21D;62201;49.966;8.342;2024-03-23T14:13:19;9.40;88.76
61641;HTU21D;62201;49.966;8.342;2024-03-23T14:15:45;10.22;85.57
61641;HTU21D;62201;49.966;8.342;2024-03-23T14:18:10;11.24;80.07
61641;HTU21D;62201;49.966;8.342;2024-03-23T14:20:36;10.06;83.03
61641;HTU21D;62201;49.966;8.342;2024-03-23T14:23:01;10.26;83.29
61641;HTU21D;62201;49.966;8.342;2024-03-23T14:25:26;12.13;77.39
61641;HTU21D;62201;49.966;8.342;2024-03-23T14:27:52;12.51;71.59
61641;HTU21D;62201;49.966;8.342;2024-03-23T14:30:18;13.06;66.51
61641;HTU21D;62201;49.966;8.342;2024-03-23T14:32:43;13.39;67.89
61641;HTU21D;62201;49.966;8.342;2024-03-23T14:35:08;11.99;67.93
61641;HTU21D;62201;49.966;8.342;2024-03-23T14:37:36;11.44;68.65
61641;HTU21D;62201;49.966;8.342;2024-03-23T14:40:03;11.12;70.23
61641;HTU21D;62201;49.966;8.342;2024-03-23T14:42:28;11.09;72.50
61641;HTU21D;62201;49.966;8.342;2024-03-23T14:44:54;11.49;69.13
61641;HTU21D;62201;49.966;8.342;2024-03-23T14:47:19;12.22;71.04
61641;HTU21D;62201;49.966;8.342;2024-03-23T14:49:46;11.88;69.15
61641;HTU21D;62201;49.966;8.342;2024-03-23T14:52:13;11.86;68.12
61641;HTU21D;62201;49.966;8.342;2024-03-23T14:54:39;11.98;70.57
61641;HTU21D;62201;49.966;8.342;2024-03-23T14:57:04;11.58;70.68
61641;HTU21D;62201;49.966;8.342;2024-03-23T14:59:29;11.88;69.31
61641;HTU21D;62201;49.966;8.342;2024-03-23T15:01:55;11.10;70.49
61641;HTU21D;62201;49.966;8.342;2024-03-23T15:04:21;11.48;69.94
61641;HTU21D;62201;49.966;8.342;2024-03-23T15:06:46;10.58;72.68
61641;HTU21D;62201;49.966;8.342;2024-03-23T15:09:14;10.12;73.22
61641;HTU21D;62201;49.966;8.342;2024-03-23T15:11:40;9.74;73.20
61641;HTU21D;62201;49.966;8.342;2024-03-23T15:14:05;9.95;72.93
61641;HTU21D;62201;49.966;8.342;2024-03-23T15:16:32;9.74;72.33
61641;HTU21D;62201;49.966;8.342;2024-03-23T15:18:57;9.75;73.33
61641;HTU21D;62201;49.966;8.342;2024-03-23T15:21:23;9.72;75.13
61641;HTU21D;62201;49.966;8.342;2024-03-23T15:23:48;9.31;77.56
61641;HTU21D;62201;49.966;8.342;2024-03-23T15:26:14;8.93;82.65
61641;HTU21D;62201;49.966;8.342;2024-03-23T15:28:41;8.58;82.49
61641;HTU21D;62201;49.966;8.342;2024-03-23T15:31:21;8.33;85.67
61641;HTU21D;62201;49.966;8.342;2024-03-23T15:33:46;8.37;87.57
61641;HTU21D;62201;49.966;8.342;2024-03-23T15:36:12;8.48;87.87
61641;HTU21D;62201;49.966;8.342;2024-03-23T15:38:37;8.39;88.01
61641;HTU21D;62201;49.966;8.342;2024-03-23T15:41:04;8.70;86.93
61641;HTU21D;62201;49.966;8.342;2024-03-23T15:43:29;10.74;78.98
61641;HTU21D;62201;49.966;8.342;2024-03-23T15:45:57;9.44;79.62
61641;HTU21D;62201;49.966;8.342;2024-03-23T15:48:24;10.38;77.95
61641;HTU21D;62201;49.966;8.342;2024-03-23T15:50:52;9.97;77.99
61641;HTU21D;62201;49.966;8.342;2024-03-23T15:53:22;10.00;77.84
61641;HTU21D;62201;49.966;8.342;2024-03-23T15:58:19;9.34;78.92
61641;HTU21D;62201;49.966;8.342;2024-03-23T16:00:46;8.91;78.92
61641;HTU21D;62201;49.966;8.342;2024-03-23T16:03:11;8.93;80.22
61641;HTU21D;62201;49.966;8.342;2024-03-23T16:05:36;9.00;79.71
61641;HTU21D;62201;49.966;8.342;2024-03-23T16:08:02;8.97;79.18
61641;HTU21D;62201;49.966;8.342;2024-03-23T16:10:28;8.87;79.75
61641;HTU21D;62201;49.966;8.342;2024-03-23T16:12:53;8.58;79.54
61641;HTU21D;62201;49.966;8.342;2024-03-23T16:15:18;8.70;79.12
61641;HTU21D;62201;49.966;8.342;2024-03-23T16:17:43;8.73;77.77